createdAt,value
2019-03-22T00:03:53.452Z,15.70
2019-03-22T00:05:19.685Z,15.90
2019-03-22T00:06:45.723Z,15.80
2019-03-22T00:08:11.889Z,15.80
2019-03-22T00:09:37.895Z,15.80
2019-03-22T00:11:04.055Z,15.80
2019-03-22T00:12:30.282Z,15.80
2019-03-22T00:13:56.501Z,15.80
2019-03-22T00:15:22.595Z,15.80
2019-03-22T00:16:48.734Z,15.70
2019-03-22T00:18:14.919Z,15.80
2019-03-22T00:19:41.030Z,15.80
2019-03-22T00:21:07.328Z,15.80
2019-03-22T00:22:33.381Z,15.80
2019-03-22T00:23:59.523Z,15.80
2019-03-22T00:25:25.615Z,15.80
2019-03-22T00:26:51.707Z,15.80
2019-03-22T00:28:17.836Z,15.80
2019-03-22T00:29:44.000Z,15.80
2019-03-22T00:31:10.124Z,15.80
2019-03-22T00:32:36.348Z,15.80
2019-03-22T00:34:02.635Z,15.80
2019-03-22T00:35:28.952Z,15.80
2019-03-22T00:36:55.079Z,15.80
2019-03-22T00:38:21.245Z,15.90
2019-03-22T00:39:47.258Z,15.90
2019-03-22T00:41:13.524Z,15.80
2019-03-22T00:42:39.707Z,15.80
2019-03-22T00:44:05.864Z,15.80
2019-03-22T00:45:32.093Z,15.80
2019-03-22T00:46:58.303Z,15.80
2019-03-22T00:48:24.984Z,15.80
2019-03-22T00:49:51.155Z,15.80
2019-03-22T00:51:17.295Z,15.80
2019-03-22T00:52:43.348Z,15.80
2019-03-22T00:54:09.410Z,15.80
2019-03-22T00:55:35.632Z,15.80
2019-03-22T00:57:01.871Z,15.80
2019-03-22T00:58:28.010Z,15.80
2019-03-22T00:59:54.066Z,15.80
2019-03-22T01:01:20.221Z,15.80
2019-03-22T01:02:46.322Z,15.80
2019-03-22T01:04:12.398Z,15.80
2019-03-22T01:05:38.481Z,15.80
2019-03-22T01:07:04.784Z,15.80
2019-03-22T01:08:30.956Z,15.80
2019-03-22T01:09:57.050Z,15.80
2019-03-22T01:11:23.143Z,15.70
2019-03-22T01:12:49.404Z,15.70
2019-03-22T01:14:15.436Z,15.80
2019-03-22T01:15:41.556Z,15.70
2019-03-22T01:17:07.822Z,15.70
2019-03-22T01:18:33.934Z,15.70
2019-03-22T01:20:00.238Z,15.70
2019-03-22T01:21:26.560Z,15.70
2019-03-22T01:22:52.699Z,15.70
2019-03-22T01:24:18.826Z,15.70
2019-03-22T01:25:45.063Z,15.70
2019-03-22T01:27:11.183Z,15.70
2019-03-22T01:28:37.405Z,15.60
2019-03-22T01:30:03.424Z,15.60
2019-03-22T01:31:29.498Z,15.70
2019-03-22T01:32:55.664Z,15.60
2019-03-22T01:34:21.691Z,15.60
2019-03-22T01:35:47.906Z,15.60
2019-03-22T01:37:14.037Z,15.60
2019-03-22T01:38:40.284Z,15.60
2019-03-22T01:40:07.388Z,15.60
2019-03-22T01:41:33.580Z,15.60
2019-03-22T01:42:59.842Z,15.60
2019-03-22T01:44:25.923Z,15.60
2019-03-22T01:45:52.171Z,15.60
2019-03-22T01:47:18.363Z,15.60
2019-03-22T01:48:44.548Z,15.60
2019-03-22T01:50:12.517Z,15.60
2019-03-22T01:51:38.575Z,15.60
2019-03-22T01:53:04.855Z,15.60
2019-03-22T01:54:31.245Z,15.60
2019-03-22T01:55:57.338Z,15.60
2019-03-22T01:57:23.440Z,15.60
2019-03-22T01:58:49.628Z,15.50
2019-03-22T02:00:16.743Z,15.50
2019-03-22T02:01:42.951Z,15.50
2019-03-22T02:03:09.074Z,15.50
2019-03-22T02:04:35.219Z,15.50
2019-03-22T02:06:01.267Z,15.50
2019-03-22T02:07:27.416Z,15.50
2019-03-22T02:08:53.630Z,15.40
2019-03-22T02:10:19.878Z,15.40
2019-03-22T02:11:45.992Z,15.40
2019-03-22T02:13:12.283Z,15.40
2019-03-22T02:14:38.364Z,15.40
2019-03-22T02:16:04.442Z,15.40
2019-03-22T02:17:30.634Z,15.30
2019-03-22T02:18:56.675Z,15.30
2019-03-22T02:20:22.756Z,15.30
2019-03-22T02:21:48.916Z,15.30
2019-03-22T02:23:15.048Z,15.30
2019-03-22T02:24:41.115Z,15.30
2019-03-22T02:26:07.432Z,15.30
2019-03-22T02:27:33.688Z,15.20
2019-03-22T02:28:59.719Z,15.20
2019-03-22T02:30:25.821Z,15.20
2019-03-22T02:31:51.994Z,15.20
2019-03-22T02:33:18.060Z,15.20
2019-03-22T02:34:44.195Z,15.20
2019-03-22T02:36:10.244Z,15.20
2019-03-22T02:37:36.420Z,15.30
2019-03-22T02:39:02.545Z,15.30
2019-03-22T02:40:28.673Z,15.20
2019-03-22T02:41:54.721Z,15.20
2019-03-22T02:43:20.796Z,15.30
2019-03-22T02:44:46.824Z,15.20
2019-03-22T02:46:12.853Z,15.20
2019-03-22T02:47:39.016Z,15.30
2019-03-22T02:49:05.160Z,15.20
2019-03-22T02:50:31.255Z,15.20
2019-03-22T02:51:57.296Z,15.20
2019-03-22T02:53:23.365Z,15.20
2019-03-22T02:54:49.456Z,15.20
2019-03-22T02:56:15.594Z,15.20
2019-03-22T02:57:41.866Z,15.30
2019-03-22T02:59:08.065Z,15.20
2019-03-22T03:00:34.108Z,15.30
2019-03-22T03:02:00.356Z,15.20
2019-03-22T03:03:26.526Z,15.20
2019-03-22T03:04:52.689Z,15.20
2019-03-22T03:06:18.704Z,15.20
2019-03-22T03:07:45.035Z,15.30
2019-03-22T03:09:11.092Z,15.20
2019-03-22T03:10:37.252Z,15.20
2019-03-22T03:12:03.496Z,15.20
2019-03-22T03:13:29.608Z,15.20
2019-03-22T03:14:55.669Z,15.20
2019-03-22T03:16:21.850Z,15.20
2019-03-22T03:17:47.972Z,15.20
2019-03-22T03:19:13.987Z,15.20
2019-03-22T03:20:40.134Z,15.20
2019-03-22T03:22:06.201Z,15.20
2019-03-22T03:23:32.542Z,15.20
2019-03-22T03:24:58.739Z,15.20
2019-03-22T03:26:24.870Z,15.20
2019-03-22T03:27:51.078Z,15.20
2019-03-22T03:29:17.192Z,15.10
2019-03-22T03:30:43.468Z,15.20
2019-03-22T03:32:11.129Z,15.20
2019-03-22T03:33:37.206Z,15.20
2019-03-22T03:35:03.403Z,15.20
2019-03-22T03:36:34.945Z,15.10
2019-03-22T03:38:00.327Z,15.10
2019-03-22T03:39:26.512Z,15.10
2019-03-22T03:40:52.724Z,15.10
2019-03-22T03:42:18.847Z,15.10
2019-03-22T03:43:45.100Z,15.10
2019-03-22T03:45:19.176Z,15.10
2019-03-22T03:46:45.277Z,15.10
2019-03-22T03:48:11.586Z,15.10
2019-03-22T03:49:37.649Z,15.10
2019-03-22T03:51:03.722Z,15.10
2019-03-22T03:52:29.858Z,15.10
2019-03-22T03:53:55.911Z,15.10
2019-03-22T03:55:22.057Z,15.00
2019-03-22T03:56:48.098Z,15.00
2019-03-22T03:58:14.262Z,15.00
2019-03-22T03:59:40.277Z,14.90
2019-03-22T04:01:06.517Z,15.00
2019-03-22T04:02:32.553Z,14.90
2019-03-22T04:03:58.586Z,15.00
2019-03-22T04:05:24.726Z,14.90
2019-03-22T04:06:50.882Z,14.90
2019-03-22T04:08:16.984Z,14.90
2019-03-22T04:09:43.045Z,14.90
2019-03-22T04:11:09.171Z,14.90
2019-03-22T04:12:35.249Z,14.80
2019-03-22T04:14:01.226Z,14.80
2019-03-22T04:15:27.368Z,14.80
2019-03-22T04:16:53.459Z,14.80
2019-03-22T04:18:19.510Z,14.80
2019-03-22T04:19:45.700Z,14.80
2019-03-22T06:49:20.845Z,14.20
2019-03-22T06:50:47.016Z,14.40
2019-03-22T06:52:13.244Z,14.50
2019-03-22T06:53:41.628Z,14.50
2019-03-22T06:55:07.828Z,14.50
2019-03-22T06:56:34.043Z,14.40
2019-03-22T06:58:00.130Z,14.50
2019-03-22T06:59:26.142Z,14.50
2019-03-22T07:00:52.237Z,14.60
2019-03-22T07:02:18.270Z,14.60
2019-03-22T07:03:44.289Z,14.60
2019-03-22T07:05:10.533Z,14.60
2019-03-22T07:06:36.662Z,14.60
2019-03-22T07:08:02.678Z,14.60
2019-03-22T07:09:28.690Z,14.60
2019-03-22T07:10:54.846Z,14.70
2019-03-22T07:12:20.861Z,14.70
2019-03-22T07:13:46.936Z,14.70
2019-03-22T07:15:13.183Z,14.70
2019-03-22T07:16:39.410Z,14.70
2019-03-22T07:18:05.687Z,14.80
2019-03-22T07:19:31.721Z,14.80
2019-03-22T07:20:57.884Z,14.80
2019-03-22T07:22:23.889Z,14.80
2019-03-22T07:23:50.163Z,14.80
2019-03-22T07:25:16.396Z,14.80
2019-03-22T07:26:42.428Z,14.90
2019-03-22T07:28:08.443Z,14.90
2019-03-22T07:29:34.468Z,14.90
2019-03-22T07:31:00.629Z,14.90
2019-03-22T07:32:26.646Z,14.90
2019-03-22T07:33:52.680Z,14.90
2019-03-22T07:35:18.859Z,15.00
2019-03-22T07:36:46.983Z,15.00
2019-03-22T07:38:12.718Z,15.00
2019-03-22T07:39:38.743Z,15.10
2019-03-22T07:41:05.978Z,15.00
2019-03-22T07:42:32.004Z,15.10
2019-03-22T07:43:58.061Z,15.10
2019-03-22T07:45:24.168Z,15.20
2019-03-22T07:46:50.207Z,15.20
2019-03-22T07:48:16.511Z,15.20
2019-03-22T07:49:42.548Z,15.20
2019-03-22T07:51:08.661Z,15.20
2019-03-22T07:52:34.749Z,15.20
2019-03-22T07:54:03.463Z,15.30
2019-03-22T07:55:28.445Z,15.30
2019-03-22T07:56:54.480Z,15.40
2019-03-22T07:58:20.538Z,15.40
2019-03-22T07:59:46.518Z,15.50
2019-03-22T08:01:12.665Z,15.50
2019-03-22T08:02:38.671Z,15.60
2019-03-22T08:04:04.821Z,15.60
2019-03-22T08:05:31.794Z,15.60
2019-03-22T08:06:57.936Z,15.70
2019-03-22T08:08:23.958Z,15.80
2019-03-22T08:09:51.259Z,15.80
2019-03-22T08:11:17.717Z,15.80
2019-03-22T08:12:43.803Z,15.90
2019-03-22T08:14:10.021Z,15.90
2019-03-22T08:15:36.007Z,15.90
2019-03-22T08:17:02.084Z,16.00
2019-03-22T08:18:28.245Z,16.00
2019-03-22T08:19:57.082Z,16.00
2019-03-22T08:21:21.940Z,16.00
2019-03-22T08:22:48.017Z,16.00
2019-03-22T08:24:14.040Z,16.10
2019-03-22T08:25:40.081Z,16.10
2019-03-22T08:27:06.279Z,16.10
2019-03-22T08:28:32.340Z,16.10
2019-03-22T08:29:58.381Z,16.10
2019-03-22T08:31:24.409Z,16.10
2019-03-22T08:32:50.704Z,16.10
2019-03-22T08:34:16.901Z,16.10
2019-03-22T08:35:43.003Z,16.20
2019-03-22T08:37:09.049Z,16.20
2019-03-22T08:38:35.146Z,16.20
2019-03-22T08:40:01.264Z,16.30
2019-03-22T08:41:27.346Z,16.30
2019-03-22T08:42:53.353Z,16.40
2019-03-22T08:44:19.493Z,16.40
2019-03-22T08:45:45.611Z,16.50
2019-03-22T08:47:11.787Z,16.60
2019-03-22T08:48:37.892Z,16.60
2019-03-22T08:50:04.136Z,16.70
2019-03-22T08:51:30.211Z,16.70
2019-03-22T08:52:56.244Z,16.80
2019-03-22T08:54:22.376Z,16.90
2019-03-22T08:55:48.384Z,16.90
2019-03-22T08:57:14.459Z,17.00
2019-03-22T08:58:40.599Z,17.00
2019-03-22T09:00:08.135Z,17.10
2019-03-22T09:01:34.236Z,17.10
2019-03-22T09:03:00.339Z,17.20
2019-03-22T09:04:26.487Z,17.20
2019-03-22T09:05:52.619Z,17.20
2019-03-22T09:07:18.643Z,17.20
2019-03-22T09:08:47.591Z,17.30
2019-03-22T09:10:13.852Z,17.40
2019-03-22T09:11:39.896Z,17.40
2019-03-22T09:13:06.254Z,17.40
2019-03-22T09:14:32.329Z,17.50
2019-03-22T09:15:58.398Z,17.60
2019-03-22T09:17:24.476Z,17.60
2019-03-22T09:18:50.658Z,17.70
2019-03-22T09:20:16.939Z,17.70
2019-03-22T09:21:42.942Z,17.80
2019-03-22T09:23:08.994Z,17.80
2019-03-22T09:24:39.290Z,17.80
2019-03-22T09:26:02.878Z,17.70
2019-03-22T09:27:28.956Z,17.70
2019-03-22T09:28:55.050Z,17.60
2019-03-22T09:30:21.310Z,17.60
2019-03-22T09:31:47.293Z,17.50
2019-03-22T09:33:13.522Z,17.40
2019-03-22T09:34:39.762Z,17.40
2019-03-22T09:36:05.864Z,17.40
2019-03-22T09:37:31.922Z,17.40
2019-03-22T09:38:57.930Z,17.50
2019-03-22T09:40:24.223Z,17.50
2019-03-22T09:41:50.171Z,17.60
2019-03-22T09:43:16.214Z,17.70
2019-03-22T09:44:44.510Z,17.80
2019-03-22T09:46:10.235Z,17.80
2019-03-22T09:47:36.270Z,17.90
2019-03-22T09:49:02.339Z,18.00
2019-03-22T09:50:28.406Z,18.00
2019-03-22T09:51:55.302Z,18.10
2019-03-22T09:53:21.557Z,18.20
2019-03-22T09:54:47.717Z,18.20
2019-03-22T09:56:13.725Z,18.30
2019-03-22T09:57:39.730Z,18.40
2019-03-22T09:59:05.968Z,18.40
2019-03-22T10:00:35.789Z,18.50
2019-03-22T10:02:01.846Z,18.60
2019-03-22T10:03:27.911Z,18.70
2019-03-22T10:04:54.007Z,18.70
2019-03-22T10:06:20.010Z,18.80
2019-03-22T10:07:46.072Z,18.80
2019-03-22T10:09:12.147Z,18.90
2019-03-22T10:10:38.223Z,19.00
2019-03-22T10:12:04.466Z,19.00
2019-03-22T10:13:30.606Z,19.00
2019-03-22T10:14:56.702Z,19.00
2019-03-22T10:16:22.770Z,19.10
2019-03-22T10:17:49.058Z,19.20
2019-03-22T10:19:15.137Z,19.30
2019-03-22T10:20:41.191Z,19.30
2019-03-22T10:22:07.293Z,19.30
2019-03-22T10:23:33.336Z,19.30
2019-03-22T10:24:59.448Z,19.20
2019-03-22T10:26:25.559Z,19.20
2019-03-22T10:27:51.627Z,19.20
2019-03-22T10:29:17.667Z,19.20
2019-03-22T10:30:43.712Z,19.20
2019-03-22T10:32:09.873Z,19.20
2019-03-22T10:33:35.964Z,19.30
2019-03-22T10:35:02.057Z,19.30
2019-03-22T10:36:28.099Z,19.30
2019-03-22T10:38:00.362Z,19.40
2019-03-22T10:39:21.881Z,19.50
2019-03-22T10:40:47.915Z,19.50
2019-03-22T10:42:14.019Z,19.50
2019-03-22T10:43:40.028Z,19.60
2019-03-22T10:45:06.827Z,19.60
2019-03-22T10:46:32.827Z,19.50
2019-03-22T10:47:58.996Z,19.50
2019-03-22T10:49:25.076Z,19.60
2019-03-22T10:50:51.172Z,19.50
2019-03-22T10:52:17.250Z,19.60
2019-03-22T10:53:43.329Z,19.60
2019-03-22T10:55:28.443Z,19.70
2019-03-22T10:56:37.581Z,19.70
2019-03-22T10:58:03.593Z,19.70
2019-03-22T10:59:29.775Z,19.80
2019-03-22T11:00:56.100Z,19.80
2019-03-22T11:02:22.159Z,19.90
2019-03-22T11:03:48.333Z,19.80
2019-03-22T11:05:16.209Z,19.80
2019-03-22T11:06:42.391Z,19.80
2019-03-22T11:08:08.522Z,19.80
2019-03-22T11:09:34.887Z,19.80
2019-03-22T11:11:01.017Z,19.80
2019-03-22T11:12:27.079Z,19.80
2019-03-22T11:13:53.212Z,19.80
2019-03-22T11:15:19.372Z,19.70
2019-03-22T11:16:45.429Z,19.80
2019-03-22T11:18:11.571Z,19.80
2019-03-22T11:19:37.690Z,19.80
2019-03-22T11:21:05.519Z,19.80
2019-03-22T11:22:31.501Z,19.80
2019-03-22T11:23:57.571Z,19.80
2019-03-22T11:25:23.730Z,19.80
2019-03-22T11:26:49.726Z,19.80
2019-03-22T11:28:15.807Z,19.80
2019-03-22T11:29:41.852Z,19.80
2019-03-22T11:31:07.986Z,19.80
2019-03-22T11:32:34.026Z,19.80
2019-03-22T11:34:00.136Z,19.80
2019-03-22T11:35:26.164Z,19.80
2019-03-22T11:36:52.332Z,19.80
2019-03-22T11:38:18.385Z,19.80
2019-03-22T11:39:44.439Z,19.80
2019-03-22T11:41:10.470Z,19.90
2019-03-22T11:42:36.497Z,19.90
2019-03-22T11:44:02.617Z,19.90
2019-03-22T11:45:28.917Z,19.90
2019-03-22T11:46:55.235Z,19.90
2019-03-22T11:48:21.537Z,19.90
2019-03-22T11:49:47.599Z,20.00
2019-03-22T11:51:13.680Z,20.00
2019-03-22T11:52:39.985Z,20.00
2019-03-22T11:54:06.327Z,19.90
2019-03-22T11:55:32.407Z,19.90
2019-03-22T11:56:58.468Z,19.90
2019-03-22T11:58:24.534Z,19.90
2019-03-22T11:59:50.582Z,19.90
2019-03-22T12:01:20.374Z,19.90
2019-03-22T12:02:44.399Z,20.00
2019-03-22T12:04:11.904Z,20.00
2019-03-22T12:05:40.506Z,20.10
2019-03-22T12:07:06.276Z,20.00
2019-03-22T12:08:32.432Z,20.10
2019-03-22T12:09:58.484Z,20.00
2019-03-22T12:11:24.525Z,20.00
2019-03-22T12:12:50.719Z,19.90
2019-03-22T12:14:16.915Z,19.90
2019-03-22T12:15:43.150Z,19.90
2019-03-22T12:17:09.162Z,19.80
2019-03-22T12:18:35.362Z,19.80
2019-03-22T12:20:01.610Z,19.80
2019-03-22T12:21:27.623Z,19.80
2019-03-22T12:22:53.832Z,19.80
2019-03-22T12:24:19.904Z,19.90
2019-03-22T12:25:46.075Z,19.90
2019-03-22T12:27:12.173Z,19.90
2019-03-22T12:28:38.352Z,20.00
2019-03-22T12:30:05.015Z,20.00
2019-03-22T12:31:31.047Z,20.00
2019-03-22T12:32:57.281Z,20.00
2019-03-22T12:34:23.456Z,20.00
2019-03-22T12:35:49.598Z,20.00
2019-03-22T12:37:15.737Z,20.00
2019-03-22T12:38:42.016Z,20.00
2019-03-22T12:40:09.126Z,20.00
2019-03-22T12:41:35.213Z,20.00
2019-03-22T12:43:01.436Z,20.00
2019-03-22T12:44:27.543Z,20.00
2019-03-22T12:45:53.681Z,20.10
2019-03-22T12:47:19.884Z,20.10
2019-03-22T12:48:45.968Z,20.10
2019-03-22T12:50:12.422Z,20.10
2019-03-22T12:51:38.482Z,20.10
2019-03-22T12:53:04.627Z,20.10
2019-03-22T12:54:30.793Z,20.10
2019-03-22T12:55:56.956Z,20.10
2019-03-22T12:57:25.331Z,20.10
2019-03-22T12:58:51.515Z,20.10
2019-03-22T13:00:19.784Z,20.10
2019-03-22T13:01:45.839Z,20.10
2019-03-22T13:03:12.084Z,20.10
2019-03-22T13:04:38.273Z,20.10
2019-03-22T13:06:05.197Z,20.00
2019-03-22T13:07:31.250Z,20.00
2019-03-22T13:08:57.298Z,20.10
2019-03-22T13:10:23.941Z,20.10
2019-03-22T13:11:49.977Z,20.10
2019-03-22T13:13:16.077Z,20.00
2019-03-22T13:14:42.131Z,20.00
2019-03-22T13:16:08.217Z,20.00
2019-03-22T13:17:34.378Z,20.00
2019-03-22T13:19:00.422Z,20.00
2019-03-22T13:20:26.556Z,20.00
2019-03-22T13:21:52.687Z,20.00
2019-03-22T13:23:18.758Z,20.00
2019-03-22T13:24:44.937Z,20.00
2019-03-22T13:26:11.053Z,20.00
2019-03-22T13:27:37.367Z,20.00
2019-03-22T13:29:03.522Z,19.90
2019-03-22T13:30:34.251Z,19.80
2019-03-22T13:32:00.321Z,19.80
2019-03-22T13:33:26.499Z,19.80
2019-03-22T13:34:52.490Z,19.70
2019-03-22T13:36:18.687Z,19.70
2019-03-22T13:37:44.928Z,19.70
2019-03-22T13:39:11.074Z,19.80
2019-03-22T13:40:37.369Z,19.80
2019-03-22T13:42:03.434Z,19.80
2019-03-22T13:43:29.554Z,19.80
2019-03-22T13:44:55.608Z,19.80
2019-03-22T13:46:21.679Z,19.70
2019-03-22T13:47:47.722Z,19.70
2019-03-22T13:49:13.786Z,19.70
2019-03-22T13:50:40.014Z,19.70
2019-03-22T13:52:06.299Z,19.70
2019-03-22T13:53:32.333Z,19.70
2019-03-22T13:54:58.487Z,19.70
2019-03-22T13:56:24.598Z,19.60
2019-03-22T13:57:50.768Z,19.60
2019-03-22T13:59:16.812Z,19.60
2019-03-22T14:00:42.809Z,19.60
2019-03-22T14:02:08.929Z,19.60
2019-03-22T14:03:35.039Z,19.60
2019-03-22T14:05:01.149Z,19.60
2019-03-22T14:06:27.211Z,19.60
2019-03-22T14:07:53.293Z,19.70
2019-03-22T14:09:19.448Z,19.60
2019-03-22T14:10:45.619Z,19.60
2019-03-22T14:12:12.540Z,19.60
2019-03-22T14:13:39.818Z,19.50
2019-03-22T14:15:06.665Z,19.50
2019-03-22T14:16:32.709Z,19.50
2019-03-22T14:17:59.084Z,19.50
2019-03-22T14:19:25.347Z,19.40
2019-03-22T14:20:51.440Z,19.30
2019-03-22T14:22:36.161Z,19.30
2019-03-22T14:24:02.382Z,19.20
2019-03-22T14:25:28.760Z,19.20
2019-03-22T14:26:54.963Z,19.20
2019-03-22T14:28:21.035Z,19.20
2019-03-22T14:29:47.303Z,19.10
2019-03-22T14:31:13.386Z,19.10
2019-03-22T14:32:39.497Z,19.10
2019-03-22T14:34:05.869Z,19.20
2019-03-22T14:35:32.089Z,19.20
2019-03-22T14:36:58.309Z,19.20
2019-03-22T14:38:24.395Z,19.20
2019-03-22T14:39:50.668Z,19.20
2019-03-22T14:41:16.655Z,19.20
2019-03-22T14:42:44.563Z,19.20
2019-03-22T14:44:10.734Z,19.20
2019-03-22T14:45:37.125Z,19.20
2019-03-22T14:47:03.172Z,19.20
2019-03-22T14:48:29.273Z,19.20
2019-03-22T14:49:55.695Z,19.10
2019-03-22T14:51:21.752Z,19.10
2019-03-22T14:52:48.075Z,19.10
2019-03-22T14:54:14.119Z,19.10
2019-03-22T14:55:40.264Z,19.10
2019-03-22T14:57:06.631Z,19.10
2019-03-22T14:58:32.656Z,19.00
2019-03-22T15:00:00.549Z,18.90
2019-03-22T15:01:26.817Z,18.90
2019-03-22T15:02:53.038Z,18.90
2019-03-22T15:04:19.212Z,18.80
2019-03-22T15:05:45.296Z,18.80
2019-03-22T15:07:19.387Z,18.80
2019-03-22T15:08:39.262Z,18.90
2019-03-22T15:10:06.045Z,18.90
2019-03-22T15:11:32.248Z,18.90
2019-03-22T15:12:58.428Z,18.80
2019-03-22T15:14:37.252Z,18.90
2019-03-22T15:16:17.433Z,18.80
2019-03-22T15:17:52.531Z,18.80
2019-03-22T15:19:37.402Z,18.80
2019-03-22T15:21:34.602Z,18.70
2019-03-22T15:23:13.562Z,18.70
2019-03-22T15:24:57.311Z,18.70
2019-03-22T15:26:40.958Z,18.70
2019-03-22T15:28:37.833Z,18.80
2019-03-22T15:30:23.567Z,18.70
2019-03-22T15:32:07.254Z,18.60
2019-03-22T15:35:35.728Z,18.50
2019-03-22T15:37:19.605Z,18.50
2019-03-22T15:39:10.525Z,18.50
2019-03-22T15:40:36.959Z,18.50
2019-03-22T15:42:03.164Z,18.50
2019-03-22T15:43:29.250Z,18.50
2019-03-22T15:44:55.426Z,18.50
2019-03-22T15:46:21.583Z,18.40
2019-03-22T15:47:47.832Z,18.40
2019-03-22T15:49:13.999Z,18.40
2019-03-22T15:50:40.151Z,18.50
2019-03-22T15:52:06.369Z,18.50
2019-03-22T15:53:32.369Z,18.50
2019-03-22T15:54:58.537Z,18.50
2019-03-22T15:56:24.743Z,18.50
2019-03-22T15:57:51.764Z,18.50
2019-03-22T15:59:17.730Z,18.50
2019-03-22T16:00:43.956Z,18.40
2019-03-22T16:02:10.130Z,18.40
2019-03-22T16:03:44.084Z,18.50
2019-03-22T16:05:04.587Z,18.50
2019-03-22T16:06:30.618Z,18.40
2019-03-22T16:07:56.730Z,18.40
2019-03-22T16:09:23.000Z,18.40
2019-03-22T16:10:49.094Z,18.40
2019-03-22T16:12:15.303Z,18.40
2019-03-22T16:13:41.340Z,18.40
2019-03-22T16:15:08.856Z,18.40
2019-03-22T16:16:34.915Z,18.40
2019-03-22T16:18:01.054Z,18.40
2019-03-22T16:19:27.201Z,18.40
2019-03-22T16:20:59.881Z,18.30
2019-03-22T16:22:21.113Z,18.40
2019-03-22T16:23:47.371Z,18.40
2019-03-22T16:25:13.865Z,18.40
2019-03-22T16:26:40.168Z,18.40
2019-03-22T16:28:09.458Z,18.40
2019-03-22T16:29:35.862Z,18.30
2019-03-22T16:31:02.112Z,18.30
2019-03-22T16:32:33.907Z,18.40
2019-03-22T16:34:00.097Z,18.40
2019-03-22T16:35:26.122Z,18.40
2019-03-22T16:36:52.143Z,18.30
2019-03-22T16:38:18.197Z,18.40
2019-03-22T16:39:44.368Z,18.40
2019-03-22T16:41:10.451Z,18.30
2019-03-22T16:42:36.462Z,18.30
2019-03-22T16:44:02.468Z,18.30
2019-03-22T16:45:39.710Z,18.30
2019-03-22T16:47:05.902Z,18.20
2019-03-22T16:48:31.990Z,18.20
2019-03-22T16:49:58.121Z,18.20
2019-03-22T16:51:24.272Z,18.20
2019-03-22T16:52:50.461Z,18.20
2019-03-22T16:54:16.621Z,18.20
2019-03-22T16:55:42.781Z,18.20
2019-03-22T16:57:08.943Z,18.10
2019-03-22T16:58:35.156Z,18.20
2019-03-22T17:00:01.207Z,18.20
2019-03-22T17:01:27.307Z,18.20
2019-03-22T17:02:53.479Z,18.20
2019-03-22T17:04:19.522Z,18.10
2019-03-22T17:05:45.652Z,18.10
2019-03-22T17:07:11.855Z,18.10
2019-03-22T17:08:37.884Z,18.10
2019-03-22T17:10:04.212Z,18.10
2019-03-22T17:11:30.388Z,18.10
2019-03-22T17:12:57.047Z,18.10
2019-03-22T17:14:23.124Z,18.10
2019-03-22T17:15:49.340Z,18.10
2019-03-22T17:17:17.061Z,18.20
2019-03-22T17:18:43.161Z,18.10
2019-03-22T17:20:10.149Z,18.10
2019-03-22T17:21:36.325Z,18.10
2019-03-22T17:23:02.340Z,18.20
2019-03-22T17:24:28.474Z,18.20
2019-03-22T17:25:54.515Z,18.20
2019-03-22T17:27:20.588Z,18.20
2019-03-22T17:28:46.679Z,18.30
2019-03-22T17:30:13.228Z,18.30
2019-03-22T17:31:39.252Z,18.30
2019-03-22T17:33:05.382Z,18.30
2019-03-22T17:34:31.492Z,18.30
2019-03-22T17:35:57.520Z,18.30
2019-03-22T17:37:23.632Z,18.30
2019-03-22T17:38:49.832Z,18.30
2019-03-22T17:40:16.159Z,18.30
2019-03-22T17:41:42.211Z,18.30
2019-03-22T17:43:08.545Z,18.30
2019-03-22T17:44:34.823Z,18.30
2019-03-22T17:46:01.164Z,18.30
2019-03-22T17:47:27.374Z,18.30
2019-03-22T17:48:53.383Z,18.30
2019-03-22T17:50:19.535Z,18.20
2019-03-22T17:51:45.701Z,18.20
2019-03-22T17:53:11.716Z,18.20
2019-03-22T17:54:37.778Z,18.30
2019-03-22T17:56:03.883Z,18.20
2019-03-22T17:57:33.169Z,18.20
2019-03-22T17:58:59.818Z,18.20
2019-03-22T18:00:27.389Z,18.10
2019-03-22T18:01:53.593Z,18.10
2019-03-22T18:03:19.863Z,18.10
2019-03-22T18:04:45.936Z,18.10
2019-03-22T18:06:12.064Z,18.00
2019-03-22T18:07:38.299Z,18.10
2019-03-22T18:09:05.876Z,18.00
2019-03-22T18:10:31.924Z,18.00
2019-03-22T18:11:58.042Z,18.00
2019-03-22T18:13:24.229Z,18.00
2019-03-22T18:14:50.327Z,18.00
2019-03-22T18:16:16.661Z,18.00
2019-03-22T18:17:42.711Z,18.00
2019-03-22T18:19:09.494Z,18.00
2019-03-22T18:20:35.847Z,18.00
2019-03-22T18:22:02.093Z,18.00
2019-03-22T18:23:35.450Z,18.00
2019-03-22T18:24:57.036Z,18.00
2019-03-22T18:26:23.546Z,18.00
2019-03-22T18:27:49.655Z,18.00
2019-03-22T18:29:15.837Z,18.00
2019-03-22T18:30:41.859Z,18.10
2019-03-22T18:32:07.951Z,18.10
2019-03-22T18:33:34.023Z,18.00
2019-03-22T18:35:00.090Z,18.10
2019-03-22T18:36:26.328Z,18.10
2019-03-22T18:37:52.435Z,18.00
2019-03-22T18:39:18.505Z,18.00
2019-03-22T18:40:44.592Z,18.00
2019-03-22T18:42:10.692Z,18.00
2019-03-22T18:43:36.810Z,18.00
2019-03-22T18:45:03.147Z,17.90
2019-03-22T18:46:29.300Z,18.00
2019-03-22T18:47:55.470Z,17.90
2019-03-22T18:49:21.658Z,18.00
2019-03-22T18:50:56.323Z,17.90
2019-03-22T18:52:15.566Z,17.90
2019-03-22T18:53:41.924Z,18.00
2019-03-22T18:55:09.128Z,17.90
2019-03-22T18:56:35.282Z,17.90
2019-03-22T18:58:01.324Z,17.90
2019-03-22T18:59:27.523Z,17.90
2019-03-22T19:00:53.605Z,17.90
2019-03-22T19:02:20.020Z,17.90
2019-03-22T19:03:46.121Z,17.90
2019-03-22T19:05:14.022Z,17.90
2019-03-22T19:06:40.124Z,17.90
2019-03-22T19:08:06.375Z,17.90
2019-03-22T19:09:32.446Z,17.90
2019-03-22T19:10:58.549Z,17.90
2019-03-22T19:12:24.662Z,17.90
2019-03-22T19:13:50.942Z,17.90
2019-03-22T19:15:17.185Z,17.90
2019-03-22T19:16:43.367Z,17.90
2019-03-22T19:18:09.640Z,17.80
2019-03-22T19:19:35.940Z,17.80
2019-03-22T19:21:02.076Z,17.80
2019-03-22T19:22:28.501Z,17.80
2019-03-22T19:23:54.702Z,17.70
2019-03-22T19:25:21.281Z,17.70
2019-03-22T19:26:47.854Z,17.70
2019-03-22T19:28:14.083Z,17.70
2019-03-22T19:29:40.308Z,17.70
2019-03-22T19:31:06.467Z,17.70
2019-03-22T19:32:32.573Z,17.70
2019-03-22T19:33:58.919Z,17.70
2019-03-22T19:35:25.237Z,17.60
2019-03-22T19:36:51.607Z,17.70
2019-03-22T19:38:28.124Z,17.70
2019-03-22T19:39:54.398Z,17.70
2019-03-22T19:41:20.489Z,17.70
2019-03-22T19:42:47.965Z,17.70
2019-03-22T19:44:14.014Z,17.70
2019-03-22T19:45:40.144Z,17.70
2019-03-22T19:47:06.456Z,17.70
2019-03-22T19:48:32.851Z,17.70
2019-03-22T19:49:59.014Z,17.60
2019-03-22T19:51:25.214Z,17.70
2019-03-22T19:53:05.884Z,17.70
2019-03-22T19:54:32.386Z,17.70
2019-03-22T19:56:00.250Z,17.70
2019-03-22T19:57:26.736Z,17.70
2019-03-22T19:58:52.891Z,17.70
2019-03-22T20:00:19.371Z,17.70
2019-03-22T20:01:46.163Z,17.60
2019-03-22T20:03:12.948Z,17.70
2019-03-22T20:04:42.171Z,17.70
2019-03-22T20:06:08.900Z,17.70
2019-03-22T20:07:35.125Z,17.70
2019-03-22T20:09:01.321Z,17.70
2019-03-22T20:10:28.086Z,17.70
2019-03-22T20:11:54.296Z,17.70
2019-03-22T20:13:22.148Z,17.70
2019-03-22T20:14:48.318Z,17.70
2019-03-22T20:16:14.476Z,17.70
2019-03-22T20:17:40.801Z,17.60
2019-03-22T20:19:07.286Z,17.70
2019-03-22T20:20:36.089Z,17.60
2019-03-22T20:22:01.802Z,17.60
2019-03-22T20:23:27.996Z,17.60
2019-03-22T20:24:54.139Z,17.60
2019-03-22T20:26:20.248Z,17.60
2019-03-22T20:27:46.505Z,17.60
2019-03-22T20:29:14.898Z,17.60
2019-03-22T20:30:41.092Z,17.60
2019-03-22T20:32:07.402Z,17.60
2019-03-22T20:33:33.597Z,17.50
2019-03-22T20:34:59.671Z,17.60
2019-03-22T20:36:25.712Z,17.60
2019-03-22T20:37:51.740Z,17.60
2019-03-22T20:39:18.042Z,17.60
2019-03-22T20:40:44.166Z,17.60
2019-03-22T20:42:10.533Z,17.60
2019-03-22T20:43:36.638Z,17.60
2019-03-22T20:45:03.037Z,17.60
2019-03-22T20:46:29.508Z,17.70
2019-03-22T20:47:55.691Z,17.60
2019-03-22T20:49:21.987Z,17.60
2019-03-22T20:50:48.535Z,17.70
2019-03-22T20:52:15.010Z,17.70
2019-03-22T20:53:44.421Z,17.70
2019-03-22T20:55:11.297Z,17.60
2019-03-22T20:56:37.468Z,17.60
2019-03-22T20:58:11.578Z,17.70
2019-03-22T20:59:37.756Z,17.70
2019-03-22T21:01:04.261Z,17.60
2019-03-22T21:02:30.335Z,17.60
2019-03-22T21:03:59.092Z,17.60
2019-03-22T21:05:27.175Z,17.70
2019-03-22T21:06:53.359Z,17.60
2019-03-22T21:08:19.564Z,17.60
2019-03-22T21:39:39.102Z,17.30